Time;durP1;ratioP1;P1;durP2;ratioP2;P2;SDS_P1;SDS_P2;PMS_P1;PMS_P2;Temp;Humidity;BMP_temperature;BMP_pressure;BME280_temperature;BME280_humidity;BME280_pressure;Samples;Min_cycle;Max_cycle;Signal;HPM_P1;HPM_P2
2023/08/25 00:01:15;;;;;;;4.20;2.10;;;;;;;24.52;59.81;100855.44;4962430;28;21305;-77
2023/08/25 00:03:40;;;;;;;4.05;2.10;;;;;;;24.51;59.85;100861.75;4962296;28;20141;-77
2023/08/25 00:06:06;;;;;;;4.70;1.95;;;;;;;24.51;60.03;100867.06;4961144;28;20065;-77
2023/08/25 00:08:31;;;;;;;3.25;1.90;;;;;;;24.51;59.76;100876.91;4961972;28;20038;-77
2023/08/25 00:10:56;;;;;;;6.07;1.93;;;;;;;24.50;59.74;100877.91;4962160;28;20191;-76
2023/08/25 00:13:22;;;;;;;4.30;1.90;;;;;;;24.50;59.81;100883.22;4961859;28;20384;-77
2023/08/25 00:15:49;;;;;;;4.80;2.10;;;;;;;24.50;59.82;100881.41;4961415;28;20145;-77
2023/08/25 00:18:14;;;;;;;3.75;1.90;;;;;;;24.49;59.62;100874.41;4977368;28;20031;-76
2023/08/25 00:20:39;;;;;;;3.97;1.88;;;;;;;24.50;59.76;100876.09;4961601;28;20542;-76
2023/08/25 00:23:04;;;;;;;5.43;2.20;;;;;;;24.50;59.75;100880.56;4961861;28;20037;-76
2023/08/25 00:25:30;;;;;;;4.05;1.85;;;;;;;24.49;59.75;100884.25;4961266;28;20284;-77
2023/08/25 00:27:56;;;;;;;3.83;1.98;;;;;;;24.48;59.62;100888.72;4961913;28;20416;-77
2023/08/25 00:30:21;;;;;;;3.50;1.80;;;;;;;24.49;59.75;100885.06;4961695;28;20480;-77
2023/08/25 00:32:46;;;;;;;4.72;2.20;;;;;;;24.47;59.66;100879.09;4961899;28;20269;-77
2023/08/25 00:35:12;;;;;;;3.92;2.03;;;;;;;24.48;59.86;100888.72;4961124;28;20135;-77
2023/08/25 00:37:37;;;;;;;4.72;2.20;;;;;;;24.49;59.42;100892.22;4960959;28;20042;-77
2023/08/25 00:40:03;;;;;;;4.22;2.22;;;;;;;24.48;59.50;100891.38;4960005;28;20456;-77
2023/08/25 00:42:28;;;;;;;5.15;2.30;;;;;;;24.47;59.20;100883.56;4961610;28;20031;-77
2023/08/25 00:44:53;;;;;;;5.75;2.00;;;;;;;24.46;59.24;100885.41;4961060;28;20042;-77
2023/08/25 00:47:19;;;;;;;4.55;2.50;;;;;;;24.43;59.59;100883.06;4961835;28;20039;-76
2023/08/25 00:49:46;;;;;;;4.85;2.28;;;;;;;24.47;59.33;100880.88;4961104;28;20081;-77
2023/08/25 00:52:12;;;;;;;4.65;2.30;;;;;;;24.44;59.44;100874.91;4961065;28;20042;-75
2023/08/25 00:54:39;;;;;;;4.57;2.30;;;;;;;24.45;59.30;100889.91;4960888;28;20035;-76
2023/08/25 00:57:05;;;;;;;5.38;2.00;;;;;;;24.45;59.61;100881.91;4960979;28;20039;-75
2023/08/25 00:59:33;;;;;;;6.05;2.00;;;;;;;24.40;59.66;100872.72;4961446;28;20045;-76
2023/08/25 01:01:59;;;;;;;3.55;2.03;;;;;;;24.44;59.26;100885.56;4961024;28;20245;-76
2023/08/25 01:04:24;;;;;;;5.68;2.33;;;;;;;24.45;59.18;100878.41;4960717;28;20532;-77
2023/08/25 01:06:49;;;;;;;3.85;2.22;;;;;;;24.44;59.45;100876.75;4961393;28;20806;-76
2023/08/25 01:09:16;;;;;;;4.20;2.15;;;;;;;24.45;59.34;100884.56;4960542;28;20109;-76
2023/08/25 01:12:00;;;;;;;4.35;2.13;;;;;;;24.44;59.10;100885.56;4960835;28;20436;-76
2023/08/25 01:14:42;;;;;;;4.32;2.42;;;;;;;24.43;59.40;100883.06;4961114;28;20043;-77
2023/08/25 01:17:26;;;;;;;4.90;2.30;;;;;;;24.43;59.36;100875.94;4960012;28;20034;-77
2023/08/25 01:20:06;;;;;;;5.85;2.30;;;;;;;24.44;59.41;100872.25;4960184;28;20034;-77
2023/08/25 01:22:36;;;;;;;5.40;2.25;;;;;;;24.43;59.37;100859.09;4961407;28;20031;-77
2023/08/25 01:25:27;;;;;;;3.78;2.08;;;;;;;24.42;59.30;100870.75;4960420;28;20078;-77
2023/08/25 01:27:55;;;;;;;4.05;2.20;;;;;;;24.44;59.21;100866.91;4960962;28;20077;-76
2023/08/25 01:30:22;;;;;;;4.32;2.20;;;;;;;24.42;59.53;100871.59;4960528;28;20136;-77
2023/08/25 01:32:51;;;;;;;4.10;1.90;;;;;;;24.42;59.40;100868.09;4960214;28;20101;-77
2023/08/25 01:35:19;;;;;;;3.97;2.10;;;;;;;24.42;59.30;100860.94;4975387;28;20794;-76
2023/08/25 01:37:56;;;;;;;4.18;2.15;;;;;;;24.41;59.32;100855.78;4960950;28;20031;-77
2023/08/25 01:40:32;;;;;;;4.78;2.28;;;;;;;24.40;59.23;100857.59;4960300;28;20098;-77
2023/08/25 01:42:57;;;;;;;4.85;2.58;;;;;;;24.42;59.30;100854.78;4960693;28;20035;-77
2023/08/25 01:45:23;;;;;;;4.38;2.20;;;;;;;24.40;59.49;100857.59;4960875;28;20049;-77
2023/08/25 01:47:50;;;;;;;3.42;1.83;;;;;;;24.40;59.22;100859.41;4959719;28;20039;-77
2023/08/25 01:50:17;;;;;;;5.53;2.05;;;;;;;24.41;58.95;100855.78;4960897;28;20438;-77
2023/08/25 01:52:43;;;;;;;4.13;2.00;;;;;;;24.41;59.54;100858.44;4960593;28;20258;-77
2023/08/25 01:55:08;;;;;;;4.15;1.88;;;;;;;24.39;59.20;100850.59;4959796;28;20086;-77
2023/08/25 01:57:34;;;;;;;4.07;2.03;;;;;;;24.40;59.38;100851.44;4960877;28;20129;-77
2023/08/25 01:59:59;;;;;;;4.45;1.98;;;;;;;24.38;59.06;100840.94;4959826;28;20042;-76
2023/08/25 02:02:24;;;;;;;4.75;2.10;;;;;;;24.40;59.31;100854.09;4960621;28;20034;-76
2023/08/25 02:04:50;;;;;;;4.25;2.10;;;;;;;24.40;59.33;100840.78;4959961;28;20030;-75
2023/08/25 02:07:15;;;;;;;5.70;2.30;;;;;;;24.38;59.30;100843.59;4960490;28;20039;-76
2023/08/25 02:09:41;;;;;;;4.20;2.10;;;;;;;24.38;59.20;100840.94;4959531;28;20265;-76
2023/08/25 02:12:06;;;;;;;4.30;2.30;;;;;;;24.38;59.14;100843.59;4960112;28;20043;-76
2023/08/25 02:14:32;;;;;;;5.88;2.13;;;;;;;24.35;59.12;100837.78;4959979;28;20038;-76
2023/08/25 02:16:57;;;;;;;4.38;2.40;;;;;;;24.39;59.15;100839.13;4960600;28;20039;-76
2023/08/25 02:19:22;;;;;;;3.70;1.90;;;;;;;24.38;59.29;100840.13;4960304;28;21017;-76
2023/08/25 02:21:48;;;;;;;4.43;2.30;;;;;;;24.38;59.25;100842.78;4960008;28;20034;-76
2023/08/25 02:24:13;;;;;;;4.20;2.10;;;;;;;24.38;59.35;100837.47;4960221;28;20535;-76
2023/08/25 02:26:39;;;;;;;5.82;2.22;;;;;;;24.36;59.51;100840.28;4960471;28;20396;-76
2023/08/25 02:29:06;;;;;;;4.25;2.10;;;;;;;24.36;59.22;100829.63;4959590;28;20038;-76
2023/08/25 02:31:31;;;;;;;4.13;2.30;;;;;;;24.36;59.32;100829.63;4960110;28;20037;-76
2023/08/25 02:33:57;;;;;;;3.83;2.20;;;;;;;24.35;59.15;100813.81;4960111;28;20034;-76
2023/08/25 02:36:22;;;;;;;4.43;2.40;;;;;;;24.36;59.25;100818.16;4959718;28;20106;-76
2023/08/25 02:38:48;;;;;;;5.18;2.10;;;;;;;24.37;59.48;100812.66;4960391;28;20027;-75
2023/08/25 02:41:13;;;;;;;4.38;2.30;;;;;;;24.37;59.35;100801.16;4960437;28;20030;-76
2023/08/25 02:43:38;;;;;;;4.47;2.20;;;;;;;24.37;59.76;100801.16;4960230;28;20563;-76
2023/08/25 02:46:04;;;;;;;3.75;2.03;;;;;;;24.36;59.49;100805.66;4960713;28;20535;-76
2023/08/25 02:48:29;;;;;;;3.58;2.10;;;;;;;24.36;59.59;100796.84;4960224;28;20031;-76
2023/08/25 02:50:54;;;;;;;6.50;2.40;;;;;;;24.35;59.43;100796.00;4959146;28;20077;-77
2023/08/25 02:53:20;;;;;;;4.63;2.38;;;;;;;24.35;59.62;100792.50;4960726;28;20260;-76
2023/08/25 02:55:46;;;;;;;4.47;2.47;;;;;;;24.36;59.31;100788.84;4959717;28;20451;-77
2023/08/25 02:58:11;;;;;;;4.07;2.20;;;;;;;24.35;59.22;100796.00;4959791;28;20860;-77
2023/08/25 03:00:36;;;;;;;4.00;2.15;;;;;;;24.35;59.43;100782.69;4962149;28;20031;-77
2023/08/25 03:03:02;;;;;;;4.93;2.03;;;;;;;24.35;59.74;100782.69;4964045;28;20122;-77
2023/08/25 03:05:28;;;;;;;4.35;2.35;;;;;;;24.35;59.74;100780.03;4963193;28;20045;-77
2023/08/25 03:07:53;;;;;;;4.55;2.58;;;;;;;24.35;59.36;100784.53;4963037;28;20039;-77
2023/08/25 03:10:19;;;;;;;4.43;2.33;;;;;;;24.34;59.51;100775.72;4963309;28;20034;-77
2023/08/25 03:12:44;;;;;;;4.72;2.40;;;;;;;24.34;59.45;100775.72;4962925;28;20133;-77
2023/08/25 03:15:10;;;;;;;4.35;2.30;;;;;;;24.33;59.45;100770.56;4961991;28;20037;-77
2023/08/25 03:17:35;;;;;;;6.50;2.65;;;;;;;24.35;59.71;100774.69;4961814;28;20097;-76
2023/08/25 03:20:02;;;;;;;4.55;2.58;;;;;;;24.34;59.30;100766.88;4962476;28;20152;-76
2023/08/25 03:22:28;;;;;;;4.93;2.50;;;;;;;24.34;59.69;100764.22;4963237;28;20050;-76
2023/08/25 03:24:53;;;;;;;5.70;2.60;;;;;;;24.33;59.28;100759.91;4962599;28;20513;-77
2023/08/25 03:27:19;;;;;;;4.25;2.22;;;;;;;24.33;59.70;100754.56;4963279;28;20035;-76
2023/08/25 03:29:44;;;;;;;4.90;2.50;;;;;;;24.32;59.75;100753.72;4962927;28;20495;-76
2023/08/25 03:32:10;;;;;;;4.28;2.55;;;;;;;24.33;59.44;100759.91;4962571;28;20276;-76
2023/08/25 03:34:35;;;;;;;6.25;2.75;;;;;;;24.33;59.69;100750.06;4963001;28;20066;-76
2023/08/25 03:37:02;;;;;;;3.75;2.25;;;;;;;24.34;59.47;100751.75;4960776;28;20484;-76
2023/08/25 03:39:27;;;;;;;5.35;2.63;;;;;;;24.33;59.78;100747.41;4962243;28;20039;-77
2023/08/25 03:41:52;;;;;;;4.50;2.80;;;;;;;24.33;59.58;100743.91;4962885;28;20038;-76
2023/08/25 03:44:18;;;;;;;4.90;2.87;;;;;;;24.33;59.44;100744.75;4962638;28;20047;-76
2023/08/25 03:46:44;;;;;;;5.40;2.88;;;;;;;24.34;59.52;100732.25;4960699;28;20312;-76
2023/08/25 03:49:10;;;;;;;4.70;2.70;;;;;;;24.32;59.29;100732.41;4962077;28;20821;-74
2023/08/25 03:51:35;;;;;;;4.50;2.47;;;;;;;24.33;59.34;100738.59;4962461;28;20051;-74
2023/08/25 03:54:01;;;;;;;4.30;2.53;;;;;;;24.33;59.69;100742.06;4960410;28;20503;-76
2023/08/25 03:56:26;;;;;;;4.63;2.38;;;;;;;24.33;59.47;100741.25;4962943;28;20066;-77
2023/08/25 03:58:51;;;;;;;5.43;2.90;;;;;;;24.33;59.45;100733.28;4961674;28;20035;-76
2023/08/25 04:01:17;;;;;;;5.10;2.70;;;;;;;24.33;59.78;100738.59;4962288;28;20626;-76
2023/08/25 04:03:42;;;;;;;4.68;2.80;;;;;;;24.32;59.68;100732.41;4962320;28;20070;-76
2023/08/25 04:06:08;;;;;;;4.20;2.50;;;;;;;24.32;59.63;100732.41;4962473;28;20035;-77
2023/08/25 04:08:33;;;;;;;4.57;2.60;;;;;;;24.32;59.70;100735.06;4961560;28;20030;-77
2023/08/25 04:10:58;;;;;;;5.38;2.90;;;;;;;24.32;59.55;100736.91;4961681;28;20141;-76
2023/08/25 04:13:24;;;;;;;4.32;2.50;;;;;;;24.31;59.67;100728.09;4961876;28;20149;-76
2023/08/25 04:15:58;;;;;;;4.40;2.70;;;;;;;24.30;59.75;100730.94;4961269;28;20070;-75
2023/08/25 04:18:24;;;;;;;4.35;2.75;;;;;;;24.32;59.64;100731.59;4961766;28;20042;-76
2023/08/25 04:20:50;;;;;;;5.63;2.90;;;;;;;24.25;60.05;100713.63;4961330;28;20158;-76
2023/08/25 04:23:15;;;;;;;4.22;2.60;;;;;;;24.30;59.88;100728.28;4976737;28;20037;-75
2023/08/25 04:25:41;;;;;;;4.53;2.72;;;;;;;24.31;59.85;100729.91;4961702;28;20042;-76
2023/08/25 04:28:07;;;;;;;5.70;2.90;;;;;;;24.30;59.81;100718.44;4961707;28;20547;-78
2023/08/25 04:30:32;;;;;;;5.75;2.88;;;;;;;24.30;59.59;100723.78;4976454;28;20023;-77
2023/08/25 04:32:57;;;;;;;4.30;2.53;;;;;;;24.30;59.68;100722.94;4962613;28;20085;-77
2023/08/25 04:35:23;;;;;;;5.73;3.13;;;;;;;24.30;59.63;100721.09;4961662;28;20288;-77
2023/08/25 04:37:48;;;;;;;4.32;2.70;;;;;;;24.29;59.93;100722.09;4962643;28;20359;-78
2023/08/25 04:40:14;;;;;;;4.38;2.80;;;;;;;24.29;59.69;100729.25;4961687;28;20118;-76
2023/08/25 04:42:41;;;;;;;5.88;2.80;;;;;;;24.30;59.67;100738.94;4961796;28;20022;-76
2023/08/25 04:45:07;;;;;;;4.82;3.20;;;;;;;24.29;59.68;100737.25;4962236;28;20039;-76
2023/08/25 04:47:33;;;;;;;4.40;2.72;;;;;;;24.27;59.48;100730.28;4962045;28;20305;-76
2023/08/25 04:50:02;;;;;;;4.97;3.20;;;;;;;24.29;59.58;100727.41;4962487;28;20560;-75
2023/08/25 04:52:28;;;;;;;4.78;2.75;;;;;;;24.29;59.57;100718.63;4962099;28;20034;-77
2023/08/25 04:54:54;;;;;;;5.57;2.50;;;;;;;24.28;59.56;100725.78;4961029;28;20459;-77
2023/08/25 04:57:20;;;;;;;4.30;2.60;;;;;;;24.28;59.38;100720.47;4961411;28;20037;-75
2023/08/25 04:59:45;;;;;;;4.28;2.72;;;;;;;24.28;59.66;100717.78;4961205;28;20031;-76
2023/08/25 05:02:10;;;;;;;6.20;2.93;;;;;;;24.23;59.80;100702.31;4961592;28;20034;-76
2023/08/25 05:04:35;;;;;;;4.68;2.80;;;;;;;24.28;59.42;100704.47;4960944;28;20792;-76
2023/08/25 05:07:01;;;;;;;5.38;2.70;;;;;;;24.28;59.75;100696.50;4961695;28;20085;-77
2023/08/25 05:09:26;;;;;;;5.20;2.80;;;;;;;24.26;59.55;100691.34;4961416;28;20042;-78
2023/08/25 05:11:51;;;;;;;4.10;2.60;;;;;;;24.27;59.56;100698.34;4961320;28;20038;-77
2023/08/25 05:14:17;;;;;;;6.78;2.92;;;;;;;24.26;59.83;100712.63;4961232;28;20293;-77
2023/08/25 05:16:42;;;;;;;5.18;2.75;;;;;;;24.26;59.68;100709.97;4961505;28;20110;-77
2023/08/25 05:19:09;;;;;;;5.40;2.90;;;;;;;24.27;59.55;100708.97;4961128;28;20027;-76
2023/08/25 05:21:35;;;;;;;4.38;2.70;;;;;;;24.26;59.59;100698.50;4961001;28;20777;-77
2023/08/25 05:24:20;;;;;;;5.57;2.80;;;;;;;24.26;59.66;100707.31;4960743;28;20399;-77
2023/08/25 05:26:51;;;;;;;5.57;2.47;;;;;;;24.25;59.70;100710.97;4958972;28;20041;-77
2023/08/25 05:29:23;;;;;;;4.25;2.78;;;;;;;24.25;59.95;100716.28;4961148;28;20820;-77
2023/08/25 05:31:49;;;;;;;4.90;2.80;;;;;;;24.26;59.56;100727.78;4960625;28;20030;-77
2023/08/25 05:34:15;;;;;;;4.72;2.50;;;;;;;24.25;59.71;100718.94;4975969;28;20444;-77
2023/08/25 05:36:40;;;;;;;4.50;2.47;;;;;;;24.25;59.69;100699.50;4975525;28;20034;-76
2023/08/25 05:39:06;;;;;;;4.90;2.53;;;;;;;24.26;59.81;100696.66;4960438;28;20158;-77
2023/08/25 05:41:31;;;;;;;5.97;3.22;;;;;;;24.26;59.74;100701.16;4963467;28;20122;-77
2023/08/25 05:43:57;;;;;;;4.75;2.63;;;;;;;24.25;59.71;100697.66;4963264;28;20097;-77
2023/08/25 05:46:22;;;;;;;4.22;2.30;;;;;;;24.25;59.57;100691.50;4960885;28;20110;-77
2023/08/25 05:48:47;;;;;;;4.57;2.47;;;;;;;24.25;59.82;100694.16;4961142;28;20114;-76
2023/08/25 05:51:13;;;;;;;4.30;2.15;;;;;;;24.25;60.01;100689.66;4961709;28;20380;-76
2023/08/25 05:53:38;;;;;;;4.45;2.38;;;;;;;24.26;59.90;100685.19;4960993;28;20035;-76
2023/08/25 05:56:04;;;;;;;5.20;2.20;;;;;;;24.26;59.68;100685.19;4962181;28;20024;-75
2023/08/25 05:58:29;;;;;;;4.18;2.10;;;;;;;24.30;59.63;100686.50;4964788;28;20030;-77
2023/08/25 06:00:56;;;;;;;5.75;2.35;;;;;;;24.31;60.13;100687.31;4961572;28;20059;-77
2023/08/25 06:03:22;;;;;;;3.83;2.22;;;;;;;24.28;60.06;100683.19;4960332;28;20522;-77
2023/08/25 06:05:51;;;;;;;5.93;2.65;;;;;;;24.28;59.92;100675.19;4960412;28;20031;-71
2023/08/25 06:08:17;;;;;;;6.20;2.45;;;;;;;24.26;60.09;100667.38;4960474;28;20423;-75
2023/08/25 06:10:43;;;;;;;5.18;2.45;;;;;;;24.26;60.18;100674.53;4960388;28;20515;-79
2023/08/25 06:13:08;;;;;;;4.05;2.17;;;;;;;24.25;59.77;100678.19;4961005;28;20058;-77
2023/08/25 06:15:36;;;;;;;4.68;2.10;;;;;;;24.26;60.24;100674.53;4960375;28;20066;-77
2023/08/25 06:18:01;;;;;;;4.38;2.50;;;;;;;24.27;60.27;100676.19;4958990;28;20492;-76
2023/08/25 06:20:27;;;;;;;5.47;2.22;;;;;;;24.26;60.23;100680.69;4960743;28;20039;-77
2023/08/25 06:22:53;;;;;;;4.97;2.35;;;;;;;24.26;60.64;100693.19;4959828;28;20038;-75
2023/08/25 06:25:18;;;;;;;5.55;2.25;;;;;;;24.24;60.43;100685.34;4960348;28;20130;-75
2023/08/25 06:27:43;;;;;;;5.55;2.30;;;;;;;24.20;60.42;100699.16;4959674;28;20125;-77
2023/08/25 06:30:10;;;;;;;3.97;2.28;;;;;;;24.24;60.69;100719.13;4960689;28;20085;-76
2023/08/25 06:32:38;;;;;;;4.88;2.35;;;;;;;24.24;60.71;100697.81;4960542;28;20081;-77
2023/08/25 06:35:04;;;;;;;4.85;2.20;;;;;;;24.25;60.74;100710.97;4973945;28;20058;-74
2023/08/25 06:37:29;;;;;;;4.50;2.20;;;;;;;24.23;60.79;100693.50;4964217;28;20034;-75
2023/08/25 06:39:54;;;;;;;4.60;2.33;;;;;;;24.24;60.84;100689.81;4962398;28;20034;-77
2023/08/25 06:42:20;;;;;;;6.27;2.20;;;;;;;24.25;60.84;100678.19;4964038;28;20050;-78
2023/08/25 06:44:45;;;;;;;5.68;2.38;;;;;;;24.24;60.63;100673.84;4963763;28;20300;-77
2023/08/25 06:47:13;;;;;;;5.50;2.95;;;;;;;24.23;60.72;100681.00;4963630;28;20120;-76
2023/08/25 06:49:38;;;;;;;7.53;2.67;;;;;;;24.24;61.23;100688.00;4963351;28;20090;-74
2023/08/25 06:52:05;;;;;;;5.07;2.50;;;;;;;24.25;61.09;100684.34;4963992;28;20031;-73
2023/08/25 06:54:31;;;;;;;5.57;2.45;;;;;;;24.26;60.86;100675.34;4962214;28;20324;-74
2023/08/25 06:56:56;;;;;;;6.90;2.60;;;;;;;24.26;61.07;100653.22;4963131;28;20563;-74
2023/08/25 06:59:22;;;;;;;5.38;2.53;;;;;;;24.26;60.84;100632.75;4963556;28;20162;-76
2023/08/25 07:01:49;;;;;;;4.95;2.60;;;;;;;24.26;60.86;100613.28;4963584;28;20053;-73
2023/08/25 07:04:15;;;;;;;5.93;2.47;;;;;;;24.27;61.01;100628.25;4963718;28;20050;-73
2023/08/25 07:06:40;;;;;;;6.07;2.30;;;;;;;24.26;61.30;100637.25;4963786;28;20042;-75
2023/08/25 07:09:06;;;;;;;5.88;2.45;;;;;;;24.33;61.48;100650.72;4958946;28;20031;-77
2023/08/25 07:11:31;;;;;;;9.90;4.00;;;;;;;24.39;61.66;100648.19;4960488;28;20494;-74
2023/08/25 07:13:56;;;;;;;11.63;4.80;;;;;;;24.43;62.26;100628.22;4962617;28;20059;-76
2023/08/25 07:16:22;;;;;;;10.93;4.55;;;;;;;24.44;62.45;100619.19;4963502;28;20034;-77
2023/08/25 07:18:50;;;;;;;9.33;3.77;;;;;;;24.44;62.26;100629.03;4961870;28;20038;-76
2023/08/25 07:21:15;;;;;;;7.72;3.28;;;;;;;24.43;62.12;100664.66;4962203;28;20514;-73
2023/08/25 07:23:41;;;;;;;8.45;3.40;;;;;;;24.42;62.68;100734.94;4961773;28;20058;-74
2023/08/25 07:26:06;;;;;;;6.20;3.20;;;;;;;24.39;62.44;100775.22;4961179;28;20451;-75
2023/08/25 07:28:32;;;;;;;8.30;3.30;;;;;;;24.36;62.30;100733.75;4962784;28;20042;-76
2023/08/25 07:30:59;;;;;;;7.68;3.33;;;;;;;24.37;62.10;100698.13;4962014;28;20038;-75
2023/08/25 07:33:24;;;;;;;9.30;3.40;;;;;;;24.38;62.30;100701.63;4961092;28;20035;-73
2023/08/25 07:35:50;;;;;;;7.63;3.30;;;;;;;24.40;62.45;100712.94;4962588;28;20045;-74
2023/08/25 07:38:15;;;;;;;10.98;3.30;;;;;;;24.39;62.12;100703.31;4962830;28;20039;-75
2023/08/25 07:40:41;;;;;;;8.93;3.17;;;;;;;24.37;62.28;100714.13;4963035;28;20170;-76
2023/08/25 07:43:06;;;;;;;6.47;2.95;;;;;;;24.35;62.16;100708.13;4962893;28;20447;-74
2023/08/25 07:45:32;;;;;;;8.63;3.45;;;;;;;24.36;61.92;100714.28;4962297;28;20073;-76
2023/08/25 07:47:59;;;;;;;6.30;2.90;;;;;;;24.42;62.07;100722.44;4957502;28;20343;-71
2023/08/25 07:50:29;;;;;;;7.72;3.20;;;;;;;24.44;61.90;100722.25;4962305;28;20046;-75
2023/08/25 07:52:55;;;;;;;8.52;3.10;;;;;;;24.46;61.83;100712.25;4961394;28;20525;-75
2023/08/25 07:55:20;;;;;;;8.25;3.50;;;;;;;24.45;61.95;100714.09;4960974;28;20035;-72
2023/08/25 07:57:46;;;;;;;8.63;3.28;;;;;;;24.43;61.99;100709.94;4977630;28;20067;-82
2023/08/25 08:00:15;;;;;;;6.82;3.05;;;;;;;24.43;61.96;100708.13;4977664;28;20042;-78
2023/08/25 08:02:42;;;;;;;7.47;2.95;;;;;;;24.43;61.97;100701.94;4962022;28;20035;-73
2023/08/25 08:05:08;;;;;;;7.80;3.10;;;;;;;24.42;62.11;100697.63;4961773;28;20662;-78
2023/08/25 08:07:34;;;;;;;5.85;3.00;;;;;;;24.42;62.13;100726.94;4943930;28;20049;-81
2023/08/25 08:10:00;;;;;;;6.90;3.38;;;;;;;24.42;61.99;100733.09;4961306;28;20050;-76
2023/08/25 08:12:25;;;;;;;8.38;2.92;;;;;;;24.43;61.88;100724.09;4962124;28;20373;-77
2023/08/25 08:14:50;;;;;;;5.78;2.83;;;;;;;24.45;61.90;100723.94;4961224;28;20057;-81
2023/08/25 08:17:16;;;;;;;5.97;2.80;;;;;;;24.48;61.51;100717.41;4961283;28;20403;-73
2023/08/25 08:19:41;;;;;;;6.38;3.10;;;;;;;24.47;61.43;100716.59;4961223;28;20031;-72
2023/08/25 08:22:06;;;;;;;5.72;3.17;;;;;;;24.47;61.62;100697.94;4961518;28;20507;-73
2023/08/25 08:24:34;;;;;;;7.45;3.13;;;;;;;24.53;61.59;100691.94;4960796;28;20066;-74
2023/08/25 08:26:59;;;;;;;6.70;2.80;;;;;;;24.58;61.22;100694.94;4959861;28;20058;-72
2023/08/25 08:29:25;;;;;;;7.88;3.17;;;;;;;24.62;60.81;100703.44;4961767;28;20115;-72
2023/08/25 08:31:50;;;;;;;6.45;3.20;;;;;;;24.59;61.10;100695.78;4961484;28;20027;-75
2023/08/25 08:34:16;;;;;;;6.05;2.53;;;;;;;24.56;60.64;100688.09;4961127;28;20400;-75
2023/08/25 08:36:41;;;;;;;6.97;2.97;;;;;;;24.55;61.13;100699.75;4961836;28;20166;-74
2023/08/25 08:39:07;;;;;;;5.88;2.53;;;;;;;24.57;61.20;100725.25;4962570;28;20269;-74
2023/08/25 08:41:38;;;;;;;8.73;3.33;;;;;;;24.58;60.90;100726.91;4962483;28;20074;-72
2023/08/25 08:44:08;;;;;;;6.40;2.53;;;;;;;24.58;61.22;100718.94;4961379;28;20045;-77
2023/08/25 08:46:36;;;;;;;5.50;2.65;;;;;;;24.60;60.89;100718.75;4962826;28;20034;-80
2023/08/25 08:49:02;;;;;;;7.07;3.10;;;;;;;24.59;60.77;100715.28;4962311;28;20109;-74
2023/08/25 08:51:29;;;;;;;8.07;2.95;;;;;;;24.59;60.57;100723.25;4964059;28;20026;-81
2023/08/25 08:53:55;;;;;;;5.85;2.92;;;;;;;24.59;60.95;100736.59;4955370;28;20057;-76
2023/08/25 08:56:21;;;;;;;4.93;2.78;;;;;;;24.52;60.92;100738.22;4959993;28;20047;-74
2023/08/25 08:58:48;;;;;;;5.47;2.70;;;;;;;24.50;61.21;100739.38;4960419;28;20031;-80
2023/08/25 09:01:15;;;;;;;4.38;2.53;;;;;;;24.47;61.01;100727.25;4962105;28;20042;-75
2023/08/25 09:03:42;;;;;;;8.00;3.30;;;;;;;24.48;61.43;100717.41;4961215;28;20097;-75
2023/08/25 09:06:08;;;;;;;7.65;3.05;;;;;;;24.47;61.14;100697.94;4961312;28;20397;-77
2023/08/25 09:08:36;;;;;;;6.72;3.35;;;;;;;24.45;61.20;100691.97;4960520;28;20069;-76
2023/08/25 09:11:03;;;;;;;5.05;3.00;;;;;;;24.44;61.30;100715.09;4961591;28;20551;-75
2023/08/25 09:13:35;;;;;;;6.78;2.95;;;;;;;24.43;61.15;100741.91;4960995;28;20109;-74
2023/08/25 09:16:12;;;;;;;6.25;3.08;;;;;;;24.47;61.22;100726.41;4960849;28;20089;-81
2023/08/25 09:18:38;;;;;;;7.07;3.00;;;;;;;24.56;60.67;100698.75;4960124;28;20093;-78
2023/08/25 09:21:14;;;;;;;5.45;3.00;;;;;;;24.58;60.98;100670.16;4958889;28;20033;-75
2023/08/25 09:23:51;;;;;;;5.72;2.90;;;;;;;24.59;60.66;100658.47;4957703;28;20041;-76
2023/08/25 09:26:16;;;;;;;6.32;2.83;;;;;;;24.63;60.39;100689.94;4959300;28;20563;-76
2023/08/25 09:28:41;;;;;;;5.23;2.90;;;;;;;24.62;60.09;100709.59;4959521;28;20035;-74
2023/08/25 09:31:20;;;;;;;7.40;3.00;;;;;;;24.62;60.74;100716.75;4960047;28;20367;-71
2023/08/25 09:33:45;;;;;;;5.68;2.80;;;;;;;24.61;60.31;100725.75;4960467;28;20035;-75
2023/08/25 09:36:10;;;;;;;7.43;3.17;;;;;;;24.54;60.78;100722.88;4960559;28;20041;-78
2023/08/25 09:38:35;;;;;;;5.03;2.90;;;;;;;24.57;60.85;100721.75;4959112;28;20034;-72
2023/08/25 09:41:01;;;;;;;5.93;2.90;;;;;;;24.59;60.51;100709.94;4960997;28;20279;-74
2023/08/25 09:43:30;;;;;;;7.07;3.17;;;;;;;24.59;60.50;100709.94;4962567;28;20319;-75
2023/08/25 09:45:55;;;;;;;6.38;3.03;;;;;;;24.59;60.87;100701.97;4959913;28;20484;-77
2023/08/25 09:48:21;;;;;;;6.03;3.17;;;;;;;24.62;60.64;100711.41;4961507;28;20047;-80
2023/08/25 09:50:49;;;;;;;6.78;3.50;;;;;;;24.61;60.62;100717.78;4962206;28;20030;-79
2023/08/25 09:53:16;;;;;;;6.90;3.30;;;;;;;24.61;61.09;100721.25;4960902;28;20035;-79
2023/08/25 09:55:41;;;;;;;5.43;3.38;;;;;;;24.60;60.70;100710.78;4960782;28;20074;-80
2023/08/25 09:58:09;;;;;;;5.90;3.30;;;;;;;24.60;60.79;100702.78;4961746;28;20477;-78
2023/08/25 10:00:36;;;;;;;5.38;2.95;;;;;;;24.61;60.51;100710.59;4960244;28;20135;-76
2023/08/25 10:03:05;;;;;;;6.82;3.60;;;;;;;24.61;60.67;100705.28;4961228;28;20454;-74
2023/08/25 10:05:32;;;;;;;5.50;3.40;;;;;;;24.63;60.54;100713.09;4961097;28;20039;-76
2023/08/25 10:07:59;;;;;;;4.65;3.13;;;;;;;24.63;60.99;100719.25;4960776;28;20100;-73
2023/08/25 10:10:26;;;;;;;6.07;3.33;;;;;;;24.55;61.15;100711.25;4964040;28;20491;-77
2023/08/25 10:12:57;;;;;;;5.53;3.35;;;;;;;24.53;61.10;100710.59;4963597;28;20053;-79
2023/08/25 10:15:27;;;;;;;5.03;3.15;;;;;;;24.54;60.68;100708.75;4964533;28;20112;-74
2023/08/25 10:17:53;;;;;;;7.25;3.63;;;;;;;24.50;61.10;100720.72;4964018;28;20046;-70
2023/08/25 10:20:22;;;;;;;5.60;2.95;;;;;;;24.49;61.00;100722.56;4964183;28;20035;-75
2023/08/25 10:22:49;;;;;;;6.43;3.10;;;;;;;24.53;61.20;100715.06;4964161;28;20085;-78
2023/08/25 10:25:17;;;;;;;5.65;3.08;;;;;;;24.56;61.10;100712.94;4963978;28;20511;-72
2023/08/25 10:27:44;;;;;;;5.22;3.33;;;;;;;24.60;61.33;100702.78;4963225;28;20376;-72
2023/08/25 10:30:11;;;;;;;5.85;3.45;;;;;;;24.63;60.98;100718.41;4979251;28;20035;-74
2023/08/25 10:32:49;;;;;;;9.10;3.15;;;;;;;24.59;61.10;100717.09;4964537;28;20487;-77
2023/08/25 10:35:15;;;;;;;6.55;3.70;;;;;;;24.63;61.57;100719.25;4963670;28;20412;-77
2023/08/25 10:37:40;;;;;;;6.20;3.58;;;;;;;24.65;61.15;100731.56;4963343;28;20030;-78
2023/08/25 10:40:12;;;;;;;5.18;3.13;;;;;;;24.60;61.46;100724.09;4962232;28;20130;-75
2023/08/25 10:42:37;;;;;;;6.93;3.65;;;;;;;24.56;61.40;100736.94;4962876;28;20046;-79
2023/08/25 10:45:07;;;;;;;5.90;3.17;;;;;;;24.53;61.63;100736.38;4963666;28;20121;-77
2023/08/25 10:47:44;;;;;;;6.82;3.03;;;;;;;24.49;61.88;100737.75;4963820;28;20125;-77
2023/08/25 10:50:10;;;;;;;6.55;2.95;;;;;;;24.49;61.49;100730.56;4964540;28;20042;-79
2023/08/25 10:52:42;;;;;;;7.95;3.47;;;;;;;24.48;61.58;100726.22;4963830;28;20050;-77
2023/08/25 10:55:28;;;;;;;6.72;3.70;;;;;;;24.51;61.70;100722.41;4963678;28;20034;-79
2023/08/25 10:58:03;;;;;;;13.20;3.90;;;;;;;24.48;61.77;100728.91;4964299;28;20049;-75
2023/08/25 11:00:34;;;;;;;7.45;3.72;;;;;;;24.48;62.12;100718.25;4963840;28;20034;-75
2023/08/25 11:03:01;;;;;;;11.77;4.15;;;;;;;24.53;61.96;100717.72;4962993;28;20039;-76
2023/08/25 11:05:26;;;;;;;7.53;3.58;;;;;;;24.55;61.68;100718.41;4967178;28;20038;-78
2023/08/25 11:08:28;;;;;;;10.20;3.70;;;;;;;24.54;61.86;100720.22;4960724;28;20851;-73
2023/08/25 11:11:31;;;;;;;10.45;3.90;;;;;;;24.52;62.19;100716.91;4962956;28;20035;-74
2023/08/25 11:13:58;;;;;;;8.80;4.15;;;;;;;24.52;61.80;100705.44;4962974;28;20243;-73
2023/08/25 11:16:24;;;;;;;7.93;3.83;;;;;;;24.51;62.21;100701.91;4963307;28;20480;-74
2023/08/25 11:18:50;;;;;;;6.97;3.30;;;;;;;24.50;62.00;100708.28;4961218;28;20105;-76
2023/08/25 11:21:16;;;;;;;8.48;4.25;;;;;;;24.54;62.36;100714.91;4958611;28;20061;-73
2023/08/25 11:23:45;;;;;;;7.05;3.67;;;;;;;24.55;62.14;100705.91;4959677;28;20034;-74